KBZN/BZN METAR and TAF weather

Enter ICAO airport designator
Station Type Date Time Source
KBZN METAR 2019/10/15 18:56 UTC NOAA

KBZN 151856Z 00000KT 10SM CLR 08/M03 A3020 RMK AO2 SLP248 T00781033


Station Type Date Time Source
KBZN Decoded METAR 2019/10/15 18:56 UTC NOAA

BOZEMAN GALLATIN FIELD, MT, United States (KBZN) 45-47N 111-09W 1361M
Oct 15, 2019 - 02:56 PM EDT / 2019.10.15 1856 UTC
Wind: Calm:0
Visibility: 10 mile(s):0
Sky conditions: clear
Temperature: 46.0 F (7.8 C)
Dew Point: 26.1 F (-3.3 C)
Relative Humidity: 45%
Pressure (altimeter): 30.2 in. Hg (1022 hPa)
ob: KBZN 151856Z 00000KT 10SM CLR 08/M03 A3020 RMK AO2 SLP248 T00781033
cycle: 19

Station Type Date Time Source
KBZN TAF 2019/10/15 18:22 UTC NOAA

TAF KBZN 151720Z 1518/1624 VRB03KT P6SM SCT250

Example: see airport list